Lingleville, Texas
Current Conditions -  °F | °C
As of 2:15 AM on Thursday 27 Nov 2014 (Local Time) from KSEP Reporting Station
Clear Clear  
Wind Chill: 41°   Ceiling: Unl
Heat Index: 44°   Visibility: 10mi
Dew Point: 32°   Wind: 7mph
Humidity: 63%   Direction: 20°NNE
Pressure: 30.44"   Gusts: NA
Location:  32.24°N, 98.38°W
Report Text: KSEP 270815Z AUTO 02006KT 10SM CLR 07/00 A3044 RMK AO2 T00690002
Loading
Personal Weather Stations






























Interactive Weather Map New forecast layout! Learn more

10-Day Weather Forecast

Advertisements
Track Severe Weather on mobile